Time;durP1;ratioP1;P1;durP2;ratioP2;P2;SDS_P1;SDS_P2;PMS_P1;PMS_P2;Temp;Humidity;BMP_temperature;BMP_pressure;BME280_temperature;BME280_humidity;BME280_pressure;Samples;Min_cycle;Max_cycle;Signal;HPM_P1;HPM_P2
2021/12/15 00:02:24;;;;;;;;;;;4.80;99.90;;;;;;5032177;28;19916;-82
2021/12/15 00:04:51;;;;;;;;;;;4.80;99.90;;;;;;5049295;28;19924;-82
2021/12/15 00:07:18;;;;;;;;;;;4.80;99.90;;;;;;5051365;28;20285;-82
2021/12/15 00:09:43;;;;;;;;;;;4.80;99.90;;;;;;5032101;28;20440;-81
2021/12/15 00:12:10;;;;;;;;;;;4.80;99.90;;;;;;5049975;28;19916;-81
2021/12/15 00:14:35;;;;;;;;;;;4.80;99.90;;;;;;5051512;28;20437;-82
2021/12/15 00:17:02;;;;;;;;;;;4.80;99.90;;;;;;5035440;28;19952;-81
2021/12/15 00:19:28;;;;;;;;;;;4.80;99.90;;;;;;5052179;28;19923;-81
2021/12/15 00:21:55;;;;;;;;;;;4.80;99.90;;;;;;5032772;28;19920;-82
2021/12/15 00:24:20;;;;;;;;;;;4.80;99.90;;;;;;5037416;28;19924;-81
2021/12/15 00:26:46;;;;;;;;;;;4.80;99.90;;;;;;5052242;28;19975;-82
2021/12/15 00:29:12;;;;;;;;;;;4.80;99.90;;;;;;5038357;28;19912;-80
2021/12/15 00:31:37;;;;;;;;;;;4.80;99.90;;;;;;5021524;28;19924;-81
2021/12/15 00:34:07;;;;;;;;;;;4.80;99.90;;;;;;5039290;28;19959;-82
2021/12/15 00:36:32;;;;;;;;;;;4.80;99.90;;;;;;5026085;28;19916;-81
2021/12/15 00:39:00;;;;;;;;;;;4.80;99.90;;;;;;5056071;28;19909;-81
2021/12/15 00:41:25;;;;;;;;;;;4.80;99.90;;;;;;5036149;28;19937;-82
2021/12/15 00:43:51;;;;;;;;;;;4.80;99.90;;;;;;5071308;28;19917;-81
2021/12/15 00:46:17;;;;;;;;;;;4.80;99.90;;;;;;5039177;28;19916;-82
2021/12/15 00:48:44;;;;;;;;;;;4.80;99.90;;;;;;5039174;28;19948;-81
2021/12/15 00:51:10;;;;;;;;;;;4.90;99.90;;;;;;5039071;28;19935;-81
2021/12/15 00:53:36;;;;;;;;;;;4.90;99.90;;;;;;5045988;28;19939;-82
2021/12/15 00:56:02;;;;;;;;;;;4.80;99.90;;;;;;5055020;28;19913;-81
2021/12/15 00:58:28;;;;;;;;;;;4.80;99.90;;;;;;5055698;28;19913;-81
2021/12/15 01:00:55;;;;;;;;;;;4.80;99.90;;;;;;5037245;28;20336;-82
2021/12/15 01:03:22;;;;;;;;;;;4.80;99.90;;;;;;5019026;28;19920;-82
2021/12/15 01:05:50;;;;;;;;;;;4.80;99.90;;;;;;5052146;28;19920;-82
2021/12/15 01:08:18;;;;;;;;;;;4.90;99.90;;;;;;5021801;28;20282;-81
2021/12/15 01:11:03;;;;;;;;;;;4.90;99.90;;;;;;5036549;28;19921;-82
2021/12/15 01:21:44;;;;;;;;;;;4.90;99.90;;;;;;5056711;28;19944;-83
2021/12/15 01:24:10;;;;;;;;;;;4.90;99.90;;;;;;5073707;28;19955;-80
2021/12/15 01:26:36;;;;;;;;;;;4.90;99.90;;;;;;5057519;28;19962;-80
2021/12/15 01:29:02;;;;;;;;;;;5.00;99.90;;;;;;5039339;28;19919;-81
2021/12/15 01:31:28;;;;;;;;;;;4.90;99.90;;;;;;5054520;28;19912;-79
2021/12/15 01:33:54;;;;;;;;;;;4.90;99.90;;;;;;5041659;28;19916;-80
2021/12/15 01:36:20;;;;;;;;;;;4.90;99.90;;;;;;5036183;28;19916;-80
2021/12/15 01:38:46;;;;;;;;;;;4.90;99.90;;;;;;5036611;28;19921;-80
2021/12/15 01:41:19;;;;;;;;;;;4.90;99.90;;;;;;5037509;28;20381;-80
2021/12/15 01:49:08;;;;;;;;;;;4.90;99.90;;;;;;5076107;28;19912;-83
2021/12/15 01:51:34;;;;;;;;;;;4.90;99.90;;;;;;5039723;28;19925;-82
2021/12/15 01:53:59;;;;;;;;;;;4.80;99.90;;;;;;5040074;28;20009;-82
2021/12/15 01:56:26;;;;;;;;;;;4.90;99.90;;;;;;5056780;28;19912;-82
2021/12/15 01:58:51;;;;;;;;;;;4.80;99.90;;;;;;5073326;28;20378;-82
2021/12/15 02:01:17;;;;;;;;;;;4.80;99.90;;;;;;5054096;28;19925;-82
2021/12/15 02:03:45;;;;;;;;;;;4.80;99.90;;;;;;5079797;28;19940;-82
2021/12/15 02:06:11;;;;;;;;;;;4.90;99.90;;;;;;5085893;28;20274;-82
2021/12/15 02:08:37;;;;;;;;;;;4.90;99.90;;;;;;5049981;28;19980;-83
2021/12/15 02:11:04;;;;;;;;;;;4.80;99.90;;;;;;5061956;28;20374;-83
2021/12/15 02:13:30;;;;;;;;;;;4.80;99.90;;;;;;5056969;28;19987;-83
2021/12/15 02:15:57;;;;;;;;;;;4.80;99.90;;;;;;5079966;28;19913;-83
2021/12/15 02:18:26;;;;;;;;;;;4.80;99.90;;;;;;5047633;28;20122;-83
2021/12/15 02:21:03;;;;;;;;;;;4.90;99.90;;;;;;5044951;28;19924;-82
2021/12/15 02:23:38;;;;;;;;;;;4.90;99.90;;;;;;5046651;28;19921;-83
2021/12/15 02:26:10;;;;;;;;;;;4.90;99.90;;;;;;5045979;28;19920;-82
2021/12/15 02:28:38;;;;;;;;;;;4.80;99.90;;;;;;5042352;28;19921;-83
2021/12/15 02:31:14;;;;;;;;;;;4.90;99.90;;;;;;5045970;28;19912;-83
2021/12/15 02:33:54;;;;;;;;;;;4.80;99.90;;;;;;5061966;28;20321;-83
2021/12/15 02:39:07;;;;;;;;;;;4.90;99.90;;;;;;5059127;28;19928;-82
2021/12/15 02:41:34;;;;;;;;;;;4.90;99.90;;;;;;5023859;28;20451;-82
2021/12/15 02:44:01;;;;;;;;;;;4.80;99.90;;;;;;5055305;28;19939;-83
2021/12/15 02:46:28;;;;;;;;;;;4.90;99.90;;;;;;5032696;28;19962;-81
2021/12/15 02:48:54;;;;;;;;;;;4.80;99.90;;;;;;5037942;28;19942;-81
2021/12/15 02:51:20;;;;;;;;;;;4.80;99.90;;;;;;5072668;28;19920;-83
2021/12/15 02:53:46;;;;;;;;;;;4.80;99.90;;;;;;5053239;28;20290;-83
2021/12/15 02:56:14;;;;;;;;;;;4.80;99.90;;;;;;5054451;28;20336;-82
2021/12/15 02:58:48;;;;;;;;;;;4.80;99.90;;;;;;5054978;28;19924;-83
2021/12/15 03:01:20;;;;;;;;;;;4.80;99.90;;;;;;5053197;28;20271;-83
2021/12/15 03:06:36;;;;;;;;;;;4.80;99.90;;;;;;5069203;28;19916;-81
2021/12/15 03:09:40;;;;;;;;;;;4.80;99.90;;;;;;5055799;28;19955;-82
2021/12/15 03:17:23;;;;;;;;;;;4.80;99.90;;;;;;5056824;28;20520;-83
2021/12/15 03:19:50;;;;;;;;;;;4.80;99.90;;;;;;5038170;28;19913;-83
2021/12/15 03:22:15;;;;;;;;;;;4.80;99.90;;;;;;5044818;28;19920;-83
2021/12/15 03:24:41;;;;;;;;;;;4.80;99.90;;;;;;5038255;28;19928;-82
2021/12/15 03:27:13;;;;;;;;;;;4.80;99.90;;;;;;5037907;28;20355;-83
2021/12/15 03:37:38;;;;;;;;;;;4.80;99.90;;;;;;5038392;28;19982;-83
2021/12/15 03:40:15;;;;;;;;;;;4.80;99.90;;;;;;5036266;28;19912;-83
2021/12/15 03:42:46;;;;;;;;;;;4.80;99.90;;;;;;5037967;28;19936;-82
2021/12/15 03:45:14;;;;;;;;;;;4.80;99.90;;;;;;5046155;28;19936;-83
2021/12/15 03:47:42;;;;;;;;;;;4.80;99.90;;;;;;5035419;28;19928;-82
2021/12/15 03:50:10;;;;;;;;;;;4.80;99.90;;;;;;5044253;28;19920;-82
2021/12/15 03:52:36;;;;;;;;;;;4.80;99.90;;;;;;5039278;28;19932;-82
2021/12/15 03:55:03;;;;;;;;;;;4.90;99.90;;;;;;5042308;28;19917;-83
2021/12/15 03:57:29;;;;;;;;;;;4.80;99.90;;;;;;5058215;28;19919;-82
2021/12/15 03:59:57;;;;;;;;;;;4.80;99.90;;;;;;5041889;28;19994;-82
2021/12/15 04:02:22;;;;;;;;;;;4.80;99.90;;;;;;5040994;28;19955;-81
2021/12/15 04:04:49;;;;;;;;;;;4.80;99.90;;;;;;5045970;28;19916;-80
2021/12/15 04:07:15;;;;;;;;;;;4.80;99.90;;;;;;5061920;28;20011;-80
2021/12/15 04:09:41;;;;;;;;;;;4.80;99.90;;;;;;5062163;28;19966;-80
2021/12/15 04:12:07;;;;;;;;;;;4.80;99.90;;;;;;5028715;28;19916;-80
2021/12/15 04:14:42;;;;;;;;;;;4.80;99.90;;;;;;5043209;28;19917;-82
2021/12/15 04:17:26;;;;;;;;;;;4.80;99.90;;;;;;5053427;28;19998;-83
2021/12/15 04:19:53;;;;;;;;;;;4.80;99.90;;;;;;5047240;28;19921;-82
2021/12/15 04:22:19;;;;;;;;;;;4.80;99.90;;;;;;5045203;28;20398;-82
2021/12/15 04:24:45;;;;;;;;;;;4.80;99.90;;;;;;5040841;28;19931;-82
2021/12/15 04:27:10;;;;;;;;;;;4.80;99.90;;;;;;5042821;28;19920;-82
2021/12/15 04:29:38;;;;;;;;;;;4.80;99.90;;;;;;5058952;28;19916;-82
2021/12/15 04:32:06;;;;;;;;;;;4.80;99.90;;;;;;5058783;28;19913;-82
2021/12/15 04:34:32;;;;;;;;;;;4.80;99.90;;;;;;5061507;28;19948;-82
2021/12/15 04:36:58;;;;;;;;;;;4.80;99.90;;;;;;5070882;28;19920;-81
2021/12/15 04:39:25;;;;;;;;;;;4.80;99.90;;;;;;5058459;28;19912;-82
2021/12/15 04:41:52;;;;;;;;;;;4.80;99.90;;;;;;5044282;28;19982;-83
2021/12/15 04:44:21;;;;;;;;;;;4.80;99.90;;;;;;5046406;28;20370;-83
2021/12/15 04:46:50;;;;;;;;;;;4.80;99.90;;;;;;5043000;28;19913;-80
2021/12/15 04:49:18;;;;;;;;;;;4.80;99.90;;;;;;5062533;28;19998;-80
2021/12/15 04:51:43;;;;;;;;;;;4.80;99.90;;;;;;5061672;28;19916;-79
2021/12/15 04:54:09;;;;;;;;;;;4.90;99.90;;;;;;5064141;28;19935;-79
2021/12/15 04:56:35;;;;;;;;;;;4.90;99.90;;;;;;5060856;28;19919;-79
2021/12/15 04:59:00;;;;;;;;;;;4.80;99.90;;;;;;5058862;28;20380;-79
2021/12/15 05:01:28;;;;;;;;;;;4.90;99.90;;;;;;5080075;28;20001;-80
2021/12/15 05:03:53;;;;;;;;;;;4.90;99.90;;;;;;5057085;28;19963;-79
2021/12/15 05:06:19;;;;;;;;;;;4.90;99.90;;;;;;5060583;28;19912;-79
2021/12/15 05:08:45;;;;;;;;;;;4.90;99.90;;;;;;5045398;28;20007;-80
2021/12/15 05:11:11;;;;;;;;;;;4.80;99.90;;;;;;5045708;28;19940;-81
2021/12/15 05:13:37;;;;;;;;;;;4.80;99.90;;;;;;5043031;28;20348;-82
2021/12/15 05:16:03;;;;;;;;;;;4.80;99.90;;;;;;5060608;28;19955;-82
2021/12/15 05:18:29;;;;;;;;;;;4.80;99.90;;;;;;5061730;28;19916;-82
2021/12/15 05:20:55;;;;;;;;;;;4.80;99.90;;;;;;5056627;28;20378;-81
2021/12/15 05:23:27;;;;;;;;;;;4.80;99.90;;;;;;5070833;22;19964;-81
2021/12/15 05:25:53;;;;;;;;;;;4.90;99.90;;;;;;5049365;28;20043;-81
2021/12/15 05:28:19;;;;;;;;;;;4.90;99.90;;;;;;5031795;28;19917;-81
2021/12/15 05:30:44;;;;;;;;;;;4.90;99.90;;;;;;5050497;28;20007;-81
2021/12/15 05:33:10;;;;;;;;;;;4.90;99.90;;;;;;5028547;28;20408;-82
2021/12/15 05:35:37;;;;;;;;;;;4.80;99.90;;;;;;5054380;28;20031;-81
2021/12/15 05:38:03;;;;;;;;;;;4.80;99.90;;;;;;5049582;28;19916;-81
2021/12/15 05:40:29;;;;;;;;;;;4.70;99.90;;;;;;5072201;28;20390;-82
2021/12/15 05:42:57;;;;;;;;;;;4.80;99.90;;;;;;5072039;28;20053;-81
2021/12/15 05:45:25;;;;;;;;;;;4.70;99.90;;;;;;5051559;28;19912;-81
2021/12/15 05:47:50;;;;;;;;;;;4.70;99.90;;;;;;5072061;28;19920;-81
2021/12/15 05:50:16;;;;;;;;;;;4.70;99.90;;;;;;5035237;28;19917;-82
2021/12/15 05:52:42;;;;;;;;;;;4.70;99.90;;;;;;5064760;28;19964;-81
2021/12/15 05:55:08;;;;;;;;;;;4.70;99.90;;;;;;5064095;28;19927;-82
2021/12/15 05:57:34;;;;;;;;;;;4.80;99.90;;;;;;5058867;28;19912;-81
2021/12/15 06:00:00;;;;;;;;;;;4.80;99.90;;;;;;5055137;28;19967;-82
2021/12/15 06:02:26;;;;;;;;;;;4.80;99.90;;;;;;5052113;28;20317;-82
2021/12/15 06:04:51;;;;;;;;;;;4.70;99.90;;;;;;5051446;28;19917;-82
2021/12/15 06:07:17;;;;;;;;;;;4.70;99.90;;;;;;5071712;28;19952;-81
2021/12/15 06:09:42;;;;;;;;;;;4.70;99.90;;;;;;5035583;28;20493;-83
2021/12/15 06:12:09;;;;;;;;;;;4.60;99.90;;;;;;5072579;28;20393;-81
2021/12/15 06:14:35;;;;;;;;;;;4.60;99.90;;;;;;5053254;28;19917;-82
2021/12/15 06:17:03;;;;;;;;;;;4.60;99.90;;;;;;5055149;28;20427;-80
2021/12/15 06:19:29;;;;;;;;;;;4.60;99.90;;;;;;5044755;28;19928;-83
2021/12/15 06:21:54;;;;;;;;;;;4.60;99.90;;;;;;5072314;28;20295;-81
2021/12/15 06:24:20;;;;;;;;;;;4.60;99.90;;;;;;5069096;28;19979;-81
2021/12/15 06:26:46;;;;;;;;;;;4.60;99.90;;;;;;5070043;28;19917;-81
2021/12/15 06:29:12;;;;;;;;;;;4.60;99.90;;;;;;5078160;28;19913;-82
2021/12/15 06:31:38;;;;;;;;;;;4.60;99.90;;;;;;5072190;28;19913;-82
2021/12/15 06:34:04;;;;;;;;;;;4.60;99.90;;;;;;5054358;28;20378;-82
2021/12/15 06:36:30;;;;;;;;;;;4.60;99.90;;;;;;5037105;28;19921;-81
2021/12/15 06:38:56;;;;;;;;;;;4.60;99.90;;;;;;5071134;28;19912;-81
2021/12/15 06:41:23;;;;;;;;;;;4.60;99.90;;;;;;5073502;28;19916;-82
2021/12/15 06:43:54;;;;;;;;;;;4.60;99.90;;;;;;5073154;28;19923;-82
2021/12/15 06:47:02;;;;;;;;;;;4.60;99.90;;;;;;5050956;28;20302;-82
2021/12/15 07:00:11;;;;;;;;;;;4.70;99.90;;;;;;5047914;28;19921;-83
2021/12/15 07:02:37;;;;;;;;;;;4.70;99.90;;;;;;5050592;28;19955;-83
2021/12/15 07:05:03;;;;;;;;;;;4.70;99.90;;;;;;5052613;28;20024;-84
2021/12/15 07:07:29;;;;;;;;;;;4.70;99.90;;;;;;5067241;28;19923;-85
2021/12/15 07:09:54;;;;;;;;;;;4.70;99.90;;;;;;5040264;28;19913;-81
2021/12/15 07:12:20;;;;;;;;;;;4.70;99.90;;;;;;5071822;28;19999;-82
2021/12/15 07:14:46;;;;;;;;;;;4.70;99.90;;;;;;5053783;28;20019;-81
2021/12/15 07:17:19;;;;;;;;;;;4.80;99.90;;;;;;5052027;28;19924;-82
2021/12/15 07:25:08;;;;;;;;;;;4.80;99.90;;;;;;5071399;28;19956;-82
2021/12/15 07:27:34;;;;;;;;;;;4.80;99.90;;;;;;5063117;28;19916;-82
2021/12/15 07:30:00;;;;;;;;;;;4.80;99.90;;;;;;5071213;28;19916;-82
2021/12/15 07:32:26;;;;;;;;;;;4.70;99.90;;;;;;5072683;28;19912;-82
2021/12/15 07:34:52;;;;;;;;;;;4.70;99.90;;;;;;5071546;28;19955;-82
2021/12/15 07:37:17;;;;;;;;;;;4.70;99.90;;;;;;5069164;28;20286;-83
2021/12/15 07:39:54;;;;;;;;;;;4.70;99.90;;;;;;5053962;28;19920;-82
2021/12/15 07:42:29;;;;;;;;;;;4.70;99.90;;;;;;5059548;28;20003;-84
2021/12/15 07:44:54;;;;;;;;;;;4.80;99.90;;;;;;5051159;28;20294;-82
2021/12/15 07:47:20;;;;;;;;;;;4.80;99.90;;;;;;5069057;28;19916;-82
2021/12/15 07:49:46;;;;;;;;;;;4.70;99.90;;;;;;5053043;28;19913;-82
2021/12/15 07:52:12;;;;;;;;;;;4.80;99.90;;;;;;5051246;28;19919;-82
2021/12/15 07:54:37;;;;;;;;;;;4.80;99.90;;;;;;5051866;28;20003;-81
2021/12/15 07:57:05;;;;;;;;;;;4.80;99.90;;;;;;5052478;28;19916;-82
2021/12/15 07:59:31;;;;;;;;;;;4.90;99.90;;;;;;5054356;28;19920;-81
2021/12/15 08:01:57;;;;;;;;;;;4.90;99.90;;;;;;5052387;28;20406;-81
2021/12/15 08:04:23;;;;;;;;;;;4.90;99.90;;;;;;5043692;28;19964;-83
2021/12/15 08:06:48;;;;;;;;;;;5.00;99.90;;;;;;5049365;28;19913;-84
2021/12/15 08:09:15;;;;;;;;;;;5.00;99.90;;;;;;5050952;28;20003;-84
2021/12/15 08:11:41;;;;;;;;;;;5.00;99.90;;;;;;5044763;28;20008;-84
2021/12/15 08:14:07;;;;;;;;;;;5.00;99.90;;;;;;5048547;28;19940;-83
2021/12/15 08:16:33;;;;;;;;;;;5.00;99.90;;;;;;5047172;28;19916;-82
2021/12/15 08:18:59;;;;;;;;;;;5.10;99.90;;;;;;5063802;28;20337;-83
2021/12/15 08:21:24;;;;;;;;;;;5.10;99.90;;;;;;5050882;28;19913;-82
2021/12/15 08:23:50;;;;;;;;;;;5.10;99.90;;;;;;5050139;28;20653;-85
2021/12/15 08:26:17;;;;;;;;;;;5.10;99.90;;;;;;5048434;28;19960;-82
2021/12/15 08:28:43;;;;;;;;;;;5.20;99.90;;;;;;5047405;28;19913;-83
2021/12/15 08:31:08;;;;;;;;;;;5.20;99.90;;;;;;5067475;28;19912;-83
2021/12/15 08:33:35;;;;;;;;;;;5.30;99.90;;;;;;5049563;28;20385;-83
2021/12/15 08:36:03;;;;;;;;;;;5.30;99.90;;;;;;5067970;28;20397;-84
2021/12/15 08:38:32;;;;;;;;;;;5.30;99.90;;;;;;5061317;28;19920;-82
2021/12/15 08:40:59;;;;;;;;;;;5.30;99.90;;;;;;5063370;28;19916;-81
2021/12/15 08:43:24;;;;;;;;;;;5.30;99.90;;;;;;5069943;28;19916;-80
2021/12/15 08:45:53;;;;;;;;;;;5.40;99.90;;;;;;5066752;28;19916;-84
2021/12/15 08:48:19;;;;;;;;;;;5.40;99.90;;;;;;5041858;28;19920;-83
2021/12/15 08:50:45;;;;;;;;;;;5.50;99.90;;;;;;5049977;28;19920;-85
2021/12/15 08:53:11;;;;;;;;;;;5.60;99.90;;;;;;5051688;28;19920;-84
2021/12/15 08:55:41;;;;;;;;;;;5.60;99.90;;;;;;5054204;28;19913;-83
2021/12/15 08:58:10;;;;;;;;;;;5.60;99.90;;;;;;5050893;28;19966;-83
2021/12/15 09:00:37;;;;;;;;;;;5.60;99.90;;;;;;5066709;28;19947;-82
2021/12/15 09:03:02;;;;;;;;;;;5.70;99.90;;;;;;5067983;28;19920;-82
2021/12/15 09:05:28;;;;;;;;;;;5.70;99.90;;;;;;5036667;28;19938;-81
2021/12/15 09:07:56;;;;;;;;;;;5.80;99.90;;;;;;5054006;28;19916;-82
2021/12/15 09:10:25;;;;;;;;;;;5.80;99.90;;;;;;5064250;28;19948;-83
2021/12/15 09:12:50;;;;;;;;;;;5.70;99.90;;;;;;5067498;28;20023;-83
2021/12/15 09:15:16;;;;;;;;;;;5.80;99.90;;;;;;5050489;28;19960;-81
2021/12/15 09:17:42;;;;;;;;;;;5.80;99.90;;;;;;5062802;28;19928;-81
2021/12/15 09:20:09;;;;;;;;;;;5.80;99.90;;;;;;5049997;28;19956;-81
2021/12/15 09:22:36;;;;;;;;;;;5.90;99.90;;;;;;5062984;28;19920;-81
2021/12/15 09:25:02;;;;;;;;;;;5.90;99.90;;;;;;5068548;28;20267;-81
2021/12/15 09:27:28;;;;;;;;;;;5.90;99.90;;;;;;5047638;28;19979;-81
2021/12/15 09:29:53;;;;;;;;;;;5.90;99.90;;;;;;5047794;28;19971;-81
2021/12/15 09:32:19;;;;;;;;;;;6.00;99.90;;;;;;5050957;28;20410;-80
2021/12/15 09:34:45;;;;;;;;;;;6.00;99.90;;;;;;5067385;28;20475;-81
2021/12/15 09:37:11;;;;;;;;;;;6.00;99.90;;;;;;5031783;28;20431;-81
2021/12/15 09:39:37;;;;;;;;;;;6.10;99.90;;;;;;5067761;28;19912;-81
2021/12/15 09:42:04;;;;;;;;;;;6.10;99.90;;;;;;5080081;28;19932;-81
2021/12/15 09:44:29;;;;;;;;;;;6.20;99.90;;;;;;5062696;28;19920;-81
2021/12/15 09:47:21;;;;;;;;;;;6.20;99.90;;;;;;5066242;28;19921;-81
2021/12/15 10:03:30;;;;;;;;;;;6.40;99.90;;;;;;5067137;28;19921;-81
2021/12/15 10:06:45;;;;;;;;;;;6.40;99.90;;;;;;5066409;28;20438;-81
2021/12/15 10:11:54;;;;;;;;;;;6.50;99.90;;;;;;5033614;28;19970;-81
2021/12/15 10:19:51;;;;;;;;;;;6.40;99.90;;;;;;5051428;28;20317;-80
2021/12/15 10:22:28;;;;;;;;;;;6.40;99.90;;;;;;5051065;28;20270;-81
2021/12/15 10:24:55;;;;;;;;;;;6.40;99.90;;;;;;5050727;28;19962;-80
2021/12/15 10:27:34;;;;;;;;;;;6.30;99.90;;;;;;5045979;28;19913;-81
2021/12/15 10:30:06;;;;;;;;;;;6.30;99.90;;;;;;5063653;28;19955;-81
2021/12/15 10:32:33;;;;;;;;;;;6.30;99.90;;;;;;5049459;28;20278;-81
2021/12/15 10:35:04;;;;;;;;;;;6.20;99.90;;;;;;5049836;28;19961;-80
2021/12/15 10:37:29;;;;;;;;;;;6.20;99.90;;;;;;5048242;28;19920;-80
2021/12/15 10:40:12;;;;;;;;;;;6.20;99.90;;;;;;5043220;28;20385;-81
2021/12/15 10:42:38;;;;;;;;;;;6.20;99.90;;;;;;5050801;28;20050;-81
2021/12/15 10:45:06;;;;;;;;;;;6.20;99.90;;;;;;5048833;28;19913;-80
2021/12/15 10:47:38;;;;;;;;;;;6.30;99.90;;;;;;5038280;28;20518;-80
2021/12/15 10:50:04;;;;;;;;;;;6.20;99.90;;;;;;5064553;28;19913;-81
2021/12/15 10:52:32;;;;;;;;;;;6.20;99.90;;;;;;5046589;28;19981;-81
2021/12/15 10:55:02;;;;;;;;;;;6.20;99.90;;;;;;5049386;28;20290;-80
2021/12/15 10:57:30;;;;;;;;;;;6.20;99.90;;;;;;5065048;28;19954;-80
2021/12/15 10:59:56;;;;;;;;;;;6.20;99.90;;;;;;5049897;28;20416;-80
2021/12/15 11:02:25;;;;;;;;;;;6.20;99.90;;;;;;5049424;28;19975;-80
2021/12/15 11:05:01;;;;;;;;;;;6.20;99.90;;;;;;5049608;28;19998;-81
2021/12/15 11:07:31;;;;;;;;;;;6.20;99.90;;;;;;5032896;28;20011;-80
2021/12/15 11:09:56;;;;;;;;;;;6.20;99.90;;;;;;5046692;28;19920;-81
2021/12/15 11:12:27;;;;;;;;;;;6.20;99.90;;;;;;5065555;28;19913;-80
2021/12/15 11:14:58;;;;;;;;;;;6.20;99.90;;;;;;5046666;28;19963;-80
2021/12/15 11:17:26;;;;;;;;;;;6.20;99.90;;;;;;5060389;28;19916;-81
2021/12/15 11:20:04;;;;;;;;;;;6.20;99.90;;;;;;5032090;28;19920;-81
2021/12/15 11:22:49;;;;;;;;;;;6.20;99.90;;;;;;5061945;28;20506;-81
2021/12/15 11:25:20;;;;;;;;;;;6.20;99.90;;;;;;5046282;28;20415;-82
2021/12/15 11:27:50;;;;;;;;;;;6.20;99.90;;;;;;5025150;28;19928;-78
2021/12/15 11:30:20;;;;;;;;;;;6.20;99.90;;;;;;5045298;28;19918;-82
2021/12/15 11:32:48;;;;;;;;;;;6.10;99.90;;;;;;5063665;28;20286;-81
2021/12/15 11:35:15;;;;;;;;;;;6.10;99.90;;;;;;5062321;28;19920;-81
2021/12/15 11:37:46;;;;;;;;;;;6.10;99.90;;;;;;5064166;28;20536;-81
2021/12/15 11:40:12;;;;;;;;;;;6.10;99.90;;;;;;5022174;28;19916;-81
2021/12/15 11:42:39;;;;;;;;;;;6.10;99.90;;;;;;5045732;28;19920;-79
2021/12/15 11:45:09;;;;;;;;;;;6.20;99.90;;;;;;5065640;28;20030;-81
2021/12/15 11:47:36;;;;;;;;;;;6.20;99.90;;;;;;5060397;28;20440;-81
2021/12/15 11:50:13;;;;;;;;;;;6.20;99.90;;;;;;5046838;28;19924;-78
2021/12/15 11:52:41;;;;;;;;;;;6.20;99.90;;;;;;5046836;28;19978;-78
2021/12/15 11:55:19;;;;;;;;;;;6.30;99.90;;;;;;5049477;28;20569;-81
2021/12/15 11:57:45;;;;;;;;;;;6.30;99.90;;;;;;5063538;28;19920;-84
2021/12/15 12:00:13;;;;;;;;;;;6.20;99.90;;;;;;5049943;28;19916;-83
2021/12/15 12:02:39;;;;;;;;;;;6.20;99.90;;;;;;5028587;28;20400;-80
2021/12/15 12:05:05;;;;;;;;;;;6.20;99.90;;;;;;5065911;28;19924;-83
2021/12/15 12:07:37;;;;;;;;;;;6.20;99.90;;;;;;5044653;28;20354;-83
2021/12/15 12:10:17;;;;;;;;;;;6.20;99.90;;;;;;5046818;28;19916;-81
2021/12/15 12:12:56;;;;;;;;;;;6.20;99.90;;;;;;5029145;28;20007;-81
2021/12/15 12:15:23;;;;;;;;;;;6.20;99.90;;;;;;5043614;28;19923;-83
2021/12/15 12:17:51;;;;;;;;;;;6.20;99.90;;;;;;5048275;28;19944;-80
2021/12/15 12:20:26;;;;;;;;;;;6.20;99.90;;;;;;5048214;28;19916;-81
2021/12/15 12:22:53;;;;;;;;;;;6.10;99.90;;;;;;5049025;28;19920;-80
2021/12/15 12:25:20;;;;;;;;;;;6.10;99.90;;;;;;5051647;28;19924;-78
2021/12/15 12:27:47;;;;;;;;;;;6.10;99.90;;;;;;5068725;28;20413;-79
2021/12/15 12:30:18;;;;;;;;;;;6.10;99.90;;;;;;5071290;28;19996;-82
2021/12/15 12:32:44;;;;;;;;;;;6.10;99.90;;;;;;5049975;28;19931;-81
2021/12/15 12:35:10;;;;;;;;;;;6.20;99.90;;;;;;5069006;28;19917;-82
2021/12/15 12:37:36;;;;;;;;;;;6.20;99.90;;;;;;5051610;28;20404;-81
2021/12/15 12:40:15;;;;;;;;;;;6.30;99.90;;;;;;5069440;28;19917;-78
2021/12/15 12:42:41;;;;;;;;;;;6.30;99.90;;;;;;5052748;28;19913;-81
2021/12/15 12:45:24;;;;;;;;;;;6.20;99.90;;;;;;5049571;28;20003;-81
2021/12/15 12:48:10;;;;;;;;;;;6.20;99.90;;;;;;5059980;28;19917;-79
2021/12/15 12:59:24;;;;;;;;;;;6.20;99.90;;;;;;5068040;28;19989;-81
2021/12/15 13:01:50;;;;;;;;;;;6.10;99.90;;;;;;5069563;28;19924;-81
2021/12/15 13:04:15;;;;;;;;;;;6.10;99.90;;;;;;5065191;28;19912;-81
2021/12/15 13:06:42;;;;;;;;;;;6.10;99.90;;;;;;5060579;28;19921;-80
2021/12/15 13:09:10;;;;;;;;;;;6.10;99.90;;;;;;5046034;28;19936;-81
2021/12/15 13:11:38;;;;;;;;;;;6.10;99.90;;;;;;5067034;28;20027;-80
2021/12/15 13:14:04;;;;;;;;;;;6.10;99.90;;;;;;5050738;28;19916;-79
2021/12/15 13:16:50;;;;;;;;;;;6.10;99.90;;;;;;5064976;28;19921;-83
2021/12/15 13:19:21;;;;;;;;;;;6.10;99.90;;;;;;5052562;28;19913;-81
2021/12/15 13:22:47;;;;;;;;;;;6.20;99.90;;;;;;5052474;28;19917;-81
2021/12/15 13:30:35;;;;;;;;;;;6.20;99.90;;;;;;5068457;28;20311;-82
2021/12/15 13:33:06;;;;;;;;;;;6.10;99.90;;;;;;5050703;28;19916;-81
2021/12/15 13:35:38;;;;;;;;;;;6.10;99.90;;;;;;5050651;28;19923;-80
2021/12/15 13:38:03;;;;;;;;;;;6.20;99.90;;;;;;5048644;28;19920;-81
2021/12/15 13:40:50;;;;;;;;;;;6.20;99.90;;;;;;5049432;28;19912;-81
2021/12/15 13:43:34;;;;;;;;;;;6.20;99.90;;;;;;5064753;28;20406;-81
2021/12/15 13:46:00;;;;;;;;;;;6.20;99.90;;;;;;5050552;28;19920;-80
2021/12/15 13:48:45;;;;;;;;;;;6.10;99.90;;;;;;5063985;28;20482;-81
2021/12/15 13:51:11;;;;;;;;;;;6.10;99.90;;;;;;5047303;28;19936;-83
2021/12/15 13:53:36;;;;;;;;;;;6.20;99.90;;;;;;5050471;28;19916;-82
2021/12/15 13:56:02;;;;;;;;;;;6.10;99.90;;;;;;5064511;28;20325;-80
2021/12/15 13:58:30;;;;;;;;;;;6.10;99.90;;;;;;5062121;28;20352;-81
2021/12/15 14:01:04;;;;;;;;;;;6.10;99.90;;;;;;5067682;28;19916;-81
2021/12/15 14:03:47;;;;;;;;;;;6.10;99.90;;;;;;5066152;28;19928;-82
2021/12/15 14:06:15;;;;;;;;;;;6.10;99.90;;;;;;5053982;28;19958;-83
2021/12/15 14:08:48;;;;;;;;;;;6.20;99.90;;;;;;5048191;28;19917;-80
2021/12/15 14:11:17;;;;;;;;;;;6.10;99.90;;;;;;5041058;28;19916;-81
2021/12/15 14:13:48;;;;;;;;;;;6.10;99.90;;;;;;5047891;28;19923;-82
2021/12/15 14:16:26;;;;;;;;;;;6.10;99.90;;;;;;5044204;28;19916;-83
2021/12/15 14:18:52;;;;;;;;;;;6.00;99.90;;;;;;5065431;28;19923;-82
2021/12/15 14:21:18;;;;;;;;;;;6.00;99.90;;;;;;5048439;28;20041;-82
2021/12/15 14:23:48;;;;;;;;;;;6.00;99.90;;;;;;5067705;28;19917;-83
2021/12/15 14:26:17;;;;;;;;;;;6.00;99.90;;;;;;5058336;28;19918;-83
2021/12/15 14:28:45;;;;;;;;;;;6.00;99.90;;;;;;5047020;28;19924;-81
2021/12/15 14:31:10;;;;;;;;;;;6.00;99.90;;;;;;5059282;28;19933;-79
2021/12/15 14:33:38;;;;;;;;;;;6.00;99.90;;;;;;5051618;28;20167;-81
2021/12/15 14:36:09;;;;;;;;;;;5.90;99.90;;;;;;5065718;28;20436;-81
2021/12/15 14:38:36;;;;;;;;;;;5.90;99.90;;;;;;5070778;28;19916;-80
2021/12/15 14:41:15;;;;;;;;;;;5.90;99.90;;;;;;5051105;28;19973;-82
2021/12/15 14:43:40;;;;;;;;;;;5.90;99.90;;;;;;5069815;28;20425;-82
2021/12/15 14:46:14;;;;;;;;;;;5.90;99.90;;;;;;5061628;28;19963;-81
2021/12/15 14:48:40;;;;;;;;;;;5.90;99.90;;;;;;5059967;28;19928;-81
2021/12/15 14:51:05;;;;;;;;;;;5.80;99.90;;;;;;5069047;28;20427;-81
2021/12/15 14:53:39;;;;;;;;;;;5.80;99.90;;;;;;5063529;28;20580;-82
2021/12/15 14:56:04;;;;;;;;;;;5.90;99.90;;;;;;5066662;28;19948;-81
2021/12/15 14:58:30;;;;;;;;;;;5.90;99.90;;;;;;5066933;28;20323;-80
2021/12/15 15:00:56;;;;;;;;;;;5.90;99.90;;;;;;5047161;28;19943;-81
2021/12/15 15:03:21;;;;;;;;;;;5.90;99.90;;;;;;5064081;28;20010;-81
2021/12/15 15:05:48;;;;;;;;;;;5.80;99.90;;;;;;5066104;28;20293;-80
2021/12/15 15:08:16;;;;;;;;;;;5.70;99.90;;;;;;5060579;28;19917;-81
2021/12/15 15:10:43;;;;;;;;;;;5.70;99.90;;;;;;5055232;28;19913;-81
2021/12/15 15:13:09;;;;;;;;;;;5.70;99.90;;;;;;5063695;28;19920;-81
2021/12/15 15:15:37;;;;;;;;;;;5.70;99.90;;;;;;5046842;28;19917;-80
2021/12/15 15:18:06;;;;;;;;;;;5.70;99.90;;;;;;5046235;28;19963;-80
2021/12/15 15:20:38;;;;;;;;;;;5.60;99.90;;;;;;5061808;28;19913;-80
2021/12/15 15:23:06;;;;;;;;;;;5.60;99.90;;;;;;5059871;28;19917;-81
2021/12/15 15:25:32;;;;;;;;;;;5.70;99.90;;;;;;5068429;28;19991;-80
2021/12/15 15:28:02;;;;;;;;;;;5.60;99.90;;;;;;5061496;28;20403;-81
2021/12/15 15:30:29;;;;;;;;;;;5.70;99.90;;;;;;5047374;28;19917;-81
2021/12/15 15:32:58;;;;;;;;;;;5.70;99.90;;;;;;5065168;28;19958;-81
2021/12/15 15:35:31;;;;;;;;;;;5.70;99.90;;;;;;5056967;28;20413;-80
2021/12/15 15:37:58;;;;;;;;;;;5.60;99.90;;;;;;5046753;28;19943;-81
2021/12/15 15:40:27;;;;;;;;;;;5.60;99.90;;;;;;5049552;28;19913;-81
2021/12/15 15:42:54;;;;;;;;;;;5.60;99.90;;;;;;5065933;28;20504;-83
2021/12/15 15:45:25;;;;;;;;;;;5.70;99.90;;;;;;5048954;28;20019;-83
2021/12/15 15:47:51;;;;;;;;;;;5.70;99.90;;;;;;5045828;28;19923;-83
2021/12/15 15:50:17;;;;;;;;;;;5.60;99.90;;;;;;5038057;28;20466;-83
2021/12/15 15:52:46;;;;;;;;;;;5.50;99.90;;;;;;5059015;28;19917;-81
2021/12/15 15:55:12;;;;;;;;;;;5.50;99.90;;;;;;5058095;28;19987;-81
2021/12/15 15:57:37;;;;;;;;;;;5.50;99.90;;;;;;5048217;28;20105;-84
2021/12/15 16:00:04;;;;;;;;;;;5.50;99.90;;;;;;5048665;28;19912;-83
2021/12/15 16:02:38;;;;;;;;;;;5.50;99.90;;;;;;5050357;28;20003;-82
2021/12/15 16:05:07;;;;;;;;;;;5.50;99.90;;;;;;5049559;28;20003;-82